PWSweather.com
Personal Weather Stations
Station Observations
KNCCHINA3
Red Tractor Trail, China Grove, NC 28023

Red Tractor TrailChina Grove, NC 28023

Lat: 35.59751, Lon: -80.60201

Elevation: 800

Station Type: Oregon Scientific WMR 968

http://www.joesweathergarage.com

High Low Average
Temperature 94.8°F34.9°F 68.0°F20.0°F 79.1°F26.2°F
Dew Point 78.4°F25.8°F 67.2°F19.6°F 71.5°F21.9°F
Winds 8.9 mph ENE14.3 mph ENE Calm Calm 1.0 mph 1.6 mph
Wind Gusts 17.4 mph28.0 mph -- 2.4 mph3.9 mph
Humidity 100% 48% 81%
Pressure 30.06 in1017.90 in 29.91 in1012.90 in -
Precipitation 0.76 in19.30 in - -
Hour Temp Dew Point Humidity Winds Wind Gusts Pressure Precip Precip Rate Daily Precip Total
12:04 AM 75.6°F24.2°C 70.0°F21.1°C 83% 7.4 mph NE11.9 kmh NE 17.4 mph28.0 kmh 30.06 in1017.9 mb 0.00 in0.0 mm 0.00 in0.0 mm 0.00 in0.0 mm
12:09 AM 75.4°F24.1°C 69.8°F21.0°C 83% 8.9 mph ENE14.3 kmh ENE 14.4 mph23.2 kmh 30.06 in1017.9 mb 0.00 in0.0 mm 0.00 in0.0 mm 0.00 in0.0 mm
12:14 AM 74.5°F23.6°C 70.0°F21.1°C 86% 7.4 mph E11.9 kmh E 14.4 mph23.2 kmh 30.06 in1017.9 mb 0.00 in0.0 mm 0.00 in0.0 mm 0.00 in0.0 mm
12:19 AM 73.0°F22.8°C 69.9°F21.1°C 90% 6.2 mph ENE10.0 kmh ENE 11.6 mph18.7 kmh 30.06 in1017.9 mb 0.00 in0.0 mm 0.00 in0.0 mm 0.00 in0.0 mm
12:24 AM 72.1°F22.3°C 69.7°F20.9°C 92% 4.0 mph ENE6.4 kmh ENE 11.6 mph18.7 kmh 30.06 in1017.9 mb 0.00 in0.0 mm 0.00 in0.0 mm 0.00 in0.0 mm
12:30 AM 71.6°F22.0°C 69.9°F21.1°C 95% 4.1 mph NE6.6 kmh NE 8.0 mph12.9 kmh 30.06 in1017.9 mb 0.00 in0.0 mm 0.00 in0.0 mm 0.00 in0.0 mm
12:35 AM 71.2°F21.8°C 69.9°F21.1°C 96% 4.3 mph NE6.9 kmh NE 8.0 mph12.9 kmh 30.03 in1016.9 mb 0.00 in0.0 mm 0.00 in0.0 mm 0.00 in0.0 mm
12:42 AM 70.9°F21.6°C 69.9°F21.1°C 97% 2.2 mph ENE3.5 kmh ENE 5.0 mph8.0 kmh 30.03 in1016.9 mb 0.00 in0.0 mm 0.00 in0.0 mm 0.00 in0.0 mm
12:47 AM 70.5°F21.4°C 70.2°F21.2°C 99% 2.5 mph E4.0 kmh E 3.2 mph5.1 kmh 30.06 in1017.9 mb 0.00 in0.0 mm 0.00 in0.0 mm 0.00 in0.0 mm
12:52 AM 70.2°F21.2°C 70.2°F21.2°C 100% 3.0 mph ESE4.8 kmh ESE 3.2 mph5.1 kmh 30.06 in1017.9 mb 0.04 in1.0 mm 0.48 in12.2 mm 0.04 in1.0 mm
12:57 AM 69.6°F20.9°C 69.6°F20.9°C 100% 4.5 mph ESE7.2 kmh ESE 6.8 mph10.9 kmh 30.06 in1017.9 mb 0.08 in2.0 mm 0.48 in12.2 mm 0.08 in2.0 mm
01:03 AM 69.4°F20.8°C 69.4°F20.8°C 100% 4.1 mph ESE6.6 kmh ESE 6.8 mph10.9 kmh 30.06 in1017.9 mb 0.08 in2.0 mm 0.00 in0.0 mm 0.08 in2.0 mm
01:08 AM 69.3°F20.7°C 69.3°F20.7°C 100% 2.2 mph SE3.5 kmh SE 5.8 mph9.3 kmh 30.06 in1017.9 mb 0.08 in2.0 mm 0.00 in0.0 mm 0.08 in2.0 mm
01:14 AM 69.1°F20.6°C 69.1°F20.6°C 100% 2.9 mph S4.7 kmh S 5.0 mph8.0 kmh 30.06 in1017.9 mb 0.08 in2.0 mm 0.00 in0.0 mm 0.08 in2.0 mm
01:19 AM 69.1°F20.6°C 69.1°F20.6°C 100% Calm Calm 3.2 mph5.1 kmh 30.06 in1017.9 mb 0.00 in0.0 mm 0.00 in0.0 mm 0.08 in2.0 mm
01:25 AM 69.1°F20.6°C 69.1°F20.6°C 100% Calm Calm 2.6 mph4.2 kmh 30.06 in1017.9 mb 0.04 in1.0 mm 0.40 in10.2 mm 0.12 in3.0 mm
01:30 AM 69.1°F20.6°C 69.1°F20.6°C 100% Calm Calm 2.6 mph4.2 kmh 30.03 in1016.9 mb 0.04 in1.0 mm 0.00 in0.0 mm 0.12 in3.0 mm
01:35 AM 69.1°F20.6°C 69.1°F20.6°C 100% Calm Calm -- 30.03 in1016.9 mb 0.04 in1.0 mm 0.00 in0.0 mm 0.12 in3.0 mm
01:40 AM 69.1°F20.6°C 69.1°F20.6°C 100% Calm Calm -- 30.03 in1016.9 mb 0.04 in1.0 mm 0.00 in0.0 mm 0.12 in3.0 mm
01:46 AM 68.9°F20.5°C 68.9°F20.5°C 100% Calm Calm -- 30.03 in1016.9 mb 0.04 in1.0 mm 0.00 in0.0 mm 0.12 in3.0 mm
01:51 AM 68.9°F20.5°C 68.9°F20.5°C 100% Calm Calm -- 30.03 in1016.9 mb 0.04 in1.0 mm 0.00 in0.0 mm 0.12 in3.0 mm
01:56 AM 68.9°F20.5°C 68.9°F20.5°C 100% Calm Calm -- 30.03 in1016.9 mb 0.04 in1.0 mm 0.00 in0.0 mm 0.12 in3.0 mm
02:01 AM 68.9°F20.5°C 68.9°F20.5°C 100% Calm Calm -- 30.00 in1015.9 mb 0.04 in1.0 mm 0.00 in0.0 mm 0.12 in3.0 mm
02:07 AM 68.9°F20.5°C 68.9°F20.5°C 100% Calm Calm -- 30.00 in1015.9 mb 0.04 in1.0 mm 0.00 in0.0 mm 0.12 in3.0 mm
02:12 AM 68.7°F20.4°C 68.7°F20.4°C 100% Calm Calm -- 30.00 in1015.9 mb 0.04 in1.0 mm 0.00 in0.0 mm 0.12 in3.0 mm
02:17 AM 68.7°F20.4°C 68.7°F20.4°C 100% Calm Calm -- 29.97 in1014.9 mb 0.00 in0.0 mm 0.00 in0.0 mm 0.12 in3.0 mm
02:22 AM 68.7°F20.4°C 68.7°F20.4°C 100% Calm Calm -- 29.97 in1014.9 mb 0.00 in0.0 mm 0.00 in0.0 mm 0.12 in3.0 mm
02:27 AM 68.7°F20.4°C 68.7°F20.4°C 100% Calm Calm -- 29.97 in1014.9 mb 0.00 in0.0 mm 0.00 in0.0 mm 0.12 in3.0 mm
02:32 AM 68.7°F20.4°C 68.7°F20.4°C 100% Calm Calm -- 30.00 in1015.9 mb 0.00 in0.0 mm 0.00 in0.0 mm 0.12 in3.0 mm
02:37 AM 68.7°F20.4°C 68.7°F20.4°C 100% Calm Calm -- 30.00 in1015.9 mb 0.00 in0.0 mm 0.00 in0.0 mm 0.12 in3.0 mm
02:42 AM 68.5°F20.3°C 68.5°F20.3°C 100% Calm Calm -- 30.00 in1015.9 mb 0.00 in0.0 mm 0.00 in0.0 mm 0.12 in3.0 mm
02:47 AM 68.5°F20.3°C 68.5°F20.3°C 100% Calm Calm -- 30.00 in1015.9 mb 0.00 in0.0 mm 0.00 in0.0 mm 0.12 in3.0 mm
02:52 AM 68.5°F20.3°C 68.5°F20.3°C 100% Calm Calm -- 30.00 in1015.9 mb 0.00 in0.0 mm 0.00 in0.0 mm 0.12 in3.0 mm
02:57 AM 68.5°F20.3°C 68.5°F20.3°C 100% Calm Calm -- 30.00 in1015.9 mb 0.00 in0.0 mm 0.00 in0.0 mm 0.12 in3.0 mm
03:02 AM 68.4°F20.2°C 68.4°F20.2°C 100% Calm Calm -- 29.97 in1014.9 mb 0.00 in0.0 mm 0.00 in0.0 mm 0.12 in3.0 mm
03:09 AM 68.5°F20.3°C 68.5°F20.3°C 100% Calm Calm -- 29.97 in1014.9 mb 0.00 in0.0 mm 0.00 in0.0 mm 0.12 in3.0 mm
03:14 AM 68.4°F20.2°C 68.4°F20.2°C 100% Calm Calm -- 29.97 in1014.9 mb 0.00 in0.0 mm 0.00 in0.0 mm 0.12 in3.0 mm
03:19 AM 68.4°F20.2°C 68.4°F20.2°C 100% Calm Calm -- 29.97 in1014.9 mb 0.00 in0.0 mm 0.00 in0.0 mm 0.12 in3.0 mm
03:24 AM 68.4°F20.2°C 68.4°F20.2°C 100% Calm Calm -- 29.97 in1014.9 mb 0.00 in0.0 mm 0.00 in0.0 mm 0.12 in3.0 mm
03:30 AM 68.4°F20.2°C 68.4°F20.2°C 100% 2.1 mph SE3.4 kmh SE 2.2 mph3.5 kmh 29.97 in1014.9 mb 0.00 in0.0 mm 0.00 in0.0 mm 0.12 in3.0 mm
03:35 AM 68.4°F20.2°C 68.4°F20.2°C 100% Calm Calm 2.6 mph4.2 kmh 29.94 in1013.9 mb 0.00 in0.0 mm 0.00 in0.0 mm 0.12 in3.0 mm
03:41 AM 68.4°F20.2°C 68.4°F20.2°C 100% Calm Calm 2.6 mph4.2 kmh 29.94 in1013.9 mb 0.00 in0.0 mm 0.00 in0.0 mm 0.12 in3.0 mm
03:46 AM 68.4°F20.2°C 68.4°F20.2°C 100% Calm Calm 2.2 mph3.5 kmh 29.94 in1013.9 mb 0.00 in0.0 mm 0.00 in0.0 mm 0.12 in3.0 mm
03:52 AM 68.2°F20.1°C 68.2°F20.1°C 100% Calm Calm -- 29.94 in1013.9 mb 0.00 in0.0 mm 0.00 in0.0 mm 0.12 in3.0 mm
03:57 AM 68.2°F20.1°C 68.2°F20.1°C 100% Calm Calm -- 29.94 in1013.9 mb 0.00 in0.0 mm 0.00 in0.0 mm 0.12 in3.0 mm
04:02 AM 68.2°F20.1°C 68.2°F20.1°C 100% Calm Calm -- 29.97 in1014.9 mb 0.00 in0.0 mm 0.00 in0.0 mm 0.12 in3.0 mm
04:07 AM 68.2°F20.1°C 68.2°F20.1°C 100% 1.9 mph SSE3.1 kmh SSE 2.6 mph4.2 kmh 29.97 in1014.9 mb 0.00 in0.0 mm 0.00 in0.0 mm 0.12 in3.0 mm
04:13 AM 68.2°F20.1°C 68.2°F20.1°C 100% Calm Calm 2.6 mph4.2 kmh 29.97 in1014.9 mb 0.00 in0.0 mm 0.00 in0.0 mm 0.12 in3.0 mm
04:18 AM 68.4°F20.2°C 68.4°F20.2°C 100% Calm Calm 2.2 mph3.5 kmh 29.91 in1012.9 mb 0.00 in0.0 mm 0.00 in0.0 mm 0.12 in3.0 mm
04:23 AM 68.2°F20.1°C 68.2°F20.1°C 100% Calm Calm 4.4 mph7.1 kmh 29.91 in1012.9 mb 0.00 in0.0 mm 0.00 in0.0 mm 0.12 in3.0 mm
04:28 AM 68.2°F20.1°C 68.2°F20.1°C 100% Calm Calm 4.4 mph7.1 kmh 29.91 in1012.9 mb 0.00 in0.0 mm 0.00 in0.0 mm 0.12 in3.0 mm
04:34 AM 68.2°F20.1°C 68.2°F20.1°C 100% Calm Calm -- 29.97 in1014.9 mb 0.00 in0.0 mm 0.00 in0.0 mm 0.12 in3.0 mm
04:39 AM 68.0°F20.0°C 68.0°F20.0°C 100% Calm Calm -- 29.97 in1014.9 mb 0.00 in0.0 mm 0.00 in0.0 mm 0.12 in3.0 mm
04:44 AM 68.2°F20.1°C 68.2°F20.1°C 100% Calm Calm -- 29.97 in1014.9 mb 0.00 in0.0 mm 0.00 in0.0 mm 0.12 in3.0 mm
04:49 AM 68.0°F20.0°C 68.0°F20.0°C 100% Calm Calm -- 30.00 in1015.9 mb 0.00 in0.0 mm 0.00 in0.0 mm 0.12 in3.0 mm
04:55 AM 68.0°F20.0°C 68.0°F20.0°C 100% Calm Calm -- 30.00 in1015.9 mb 0.00 in0.0 mm 0.00 in0.0 mm 0.12 in3.0 mm
05:00 AM 68.0°F20.0°C 68.0°F20.0°C 100% Calm Calm -- 30.00 in1015.9 mb 0.00 in0.0 mm 0.00 in0.0 mm 0.12 in3.0 mm
05:05 AM 68.0°F20.0°C 68.0°F20.0°C 100% Calm Calm -- 30.00 in1015.9 mb 0.00 in0.0 mm 0.00 in0.0 mm 0.12 in3.0 mm
05:10 AM 68.0°F20.0°C 68.0°F20.0°C 100% Calm Calm -- 30.00 in1015.9 mb 0.00 in0.0 mm 0.00 in0.0 mm 0.12 in3.0 mm
05:15 AM 68.0°F20.0°C 68.0°F20.0°C 100% Calm Calm -- 29.97 in1014.9 mb 0.00 in0.0 mm 0.00 in0.0 mm 0.12 in3.0 mm
05:20 AM 68.0°F20.0°C 68.0°F20.0°C 100% Calm Calm -- 29.97 in1014.9 mb 0.00 in0.0 mm 0.00 in0.0 mm 0.12 in3.0 mm
05:26 AM 68.0°F20.0°C 68.0°F20.0°C 100% Calm Calm -- 29.97 in1014.9 mb 0.00 in0.0 mm 0.00 in0.0 mm 0.12 in3.0 mm
05:31 AM 68.0°F20.0°C 68.0°F20.0°C 100% Calm Calm -- 30.00 in1015.9 mb 0.00 in0.0 mm 0.00 in0.0 mm 0.12 in3.0 mm
05:36 AM 68.0°F20.0°C 68.0°F20.0°C 100% Calm Calm -- 30.00 in1015.9 mb 0.00 in0.0 mm 0.00 in0.0 mm 0.12 in3.0 mm
05:41 AM 68.0°F20.0°C 68.0°F20.0°C 100% Calm Calm -- 30.00 in1015.9 mb 0.00 in0.0 mm 0.00 in0.0 mm 0.12 in3.0 mm
05:47 AM 68.0°F20.0°C 68.0°F20.0°C 100% Calm Calm -- 30.00 in1015.9 mb 0.00 in0.0 mm 0.00 in0.0 mm 0.12 in3.0 mm
05:52 AM 68.0°F20.0°C 68.0°F20.0°C 100% Calm Calm -- 30.00 in1015.9 mb 0.00 in0.0 mm 0.00 in0.0 mm 0.12 in3.0 mm
05:57 AM 68.0°F20.0°C 68.0°F20.0°C 100% Calm Calm -- 30.00 in1015.9 mb 0.00 in0.0 mm 0.00 in0.0 mm 0.12 in3.0 mm
06:02 AM 68.0°F20.0°C 68.0°F20.0°C 100% Calm Calm -- 30.00 in1015.9 mb 0.00 in0.0 mm 0.00 in0.0 mm 0.12 in3.0 mm
06:07 AM 68.0°F20.0°C 68.0°F20.0°C 100% Calm Calm -- 30.00 in1015.9 mb 0.00 in0.0 mm 0.00 in0.0 mm 0.12 in3.0 mm
06:12 AM 68.0°F20.0°C 68.0°F20.0°C 100% Calm Calm -- 30.00 in1015.9 mb 0.00 in0.0 mm 0.00 in0.0 mm 0.12 in3.0 mm
06:17 AM 68.0°F20.0°C 68.0°F20.0°C 100% Calm Calm -- 30.00 in1015.9 mb 0.00 in0.0 mm 0.00 in0.0 mm 0.12 in3.0 mm
06:22 AM 68.0°F20.0°C 68.0°F20.0°C 100% Calm Calm -- 30.00 in1015.9 mb 0.00 in0.0 mm 0.00 in0.0 mm 0.12 in3.0 mm
06:28 AM 68.0°F20.0°C 68.0°F20.0°C 100% Calm Calm -- 30.00 in1015.9 mb 0.00 in0.0 mm 0.00 in0.0 mm 0.12 in3.0 mm
06:33 AM 68.2°F20.1°C 68.2°F20.1°C 100% Calm Calm -- 30.00 in1015.9 mb 0.00 in0.0 mm 0.00 in0.0 mm 0.12 in3.0 mm
06:38 AM 68.0°F20.0°C 68.0°F20.0°C 100% Calm Calm -- 30.00 in1015.9 mb 0.00 in0.0 mm 0.00 in0.0 mm 0.12 in3.0 mm
06:43 AM 68.0°F20.0°C 68.0°F20.0°C 100% Calm Calm -- 30.00 in1015.9 mb 0.00 in0.0 mm 0.00 in0.0 mm 0.12 in3.0 mm
06:48 AM 68.2°F20.1°C 68.2°F20.1°C 100% Calm Calm -- 30.00 in1015.9 mb 0.00 in0.0 mm 0.00 in0.0 mm 0.12 in3.0 mm
06:53 AM 68.2°F20.1°C 68.2°F20.1°C 100% Calm Calm -- 30.00 in1015.9 mb 0.00 in0.0 mm 0.00 in0.0 mm 0.12 in3.0 mm
06:58 AM 68.2°F20.1°C 68.2°F20.1°C 100% Calm Calm -- 30.00 in1015.9 mb 0.00 in0.0 mm 0.00 in0.0 mm 0.12 in3.0 mm
07:03 AM 68.2°F20.1°C 68.2°F20.1°C 100% Calm Calm -- 30.00 in1015.9 mb 0.00 in0.0 mm 0.00 in0.0 mm 0.12 in3.0 mm
07:09 AM 68.4°F20.2°C 68.4°F20.2°C 100% 2.9 mph SSE4.7 kmh SSE 4.4 mph7.1 kmh 30.00 in1015.9 mb 0.00 in0.0 mm 0.00 in0.0 mm 0.12 in3.0 mm
07:14 AM 68.4°F20.2°C 68.4°F20.2°C 100% Calm Calm 4.4 mph7.1 kmh 30.00 in1015.9 mb 0.00 in0.0 mm 0.00 in0.0 mm 0.12 in3.0 mm
07:19 AM 68.5°F20.3°C 68.5°F20.3°C 100% Calm Calm 2.2 mph3.5 kmh 30.00 in1015.9 mb 0.00 in0.0 mm 0.00 in0.0 mm 0.12 in3.0 mm
07:24 AM 68.5°F20.3°C 68.5°F20.3°C 100% Calm Calm 4.0 mph6.4 kmh 30.00 in1015.9 mb 0.00 in0.0 mm 0.00 in0.0 mm 0.12 in3.0 mm
07:29 AM 68.7°F20.4°C 68.7°F20.4°C 100% Calm Calm 4.0 mph6.4 kmh 30.00 in1015.9 mb 0.00 in0.0 mm 0.00 in0.0 mm 0.12 in3.0 mm
07:34 AM 68.9°F20.5°C 68.9°F20.5°C 100% Calm Calm -- 30.00 in1015.9 mb 0.00 in0.0 mm 0.00 in0.0 mm 0.12 in3.0 mm
07:39 AM 68.9°F20.5°C 68.9°F20.5°C 100% Calm Calm -- 30.00 in1015.9 mb 0.00 in0.0 mm 0.00 in0.0 mm 0.12 in3.0 mm
07:44 AM 69.1°F20.6°C 69.1°F20.6°C 100% Calm Calm -- 30.00 in1015.9 mb 0.00 in0.0 mm 0.00 in0.0 mm 0.12 in3.0 mm
07:49 AM 69.3°F20.7°C 69.3°F20.7°C 100% Calm Calm -- 30.00 in1015.9 mb 0.00 in0.0 mm 0.00 in0.0 mm 0.12 in3.0 mm
07:55 AM 69.4°F20.8°C 69.4°F20.8°C 100% Calm Calm -- 30.00 in1015.9 mb 0.00 in0.0 mm 0.00 in0.0 mm 0.12 in3.0 mm
07:59 AM 69.6°F20.9°C 69.6°F20.9°C 100% Calm Calm -- 30.00 in1015.9 mb 0.00 in0.0 mm 0.00 in0.0 mm 0.12 in3.0 mm
08:05 AM 69.8°F21.0°C 69.8°F21.0°C 100% Calm Calm -- 30.00 in1015.9 mb 0.00 in0.0 mm 0.00 in0.0 mm 0.12 in3.0 mm
08:11 AM 70.0°F21.1°C 70.0°F21.1°C 100% Calm Calm -- 30.00 in1015.9 mb 0.00 in0.0 mm 0.00 in0.0 mm 0.12 in3.0 mm
08:16 AM 70.2°F21.2°C 70.2°F21.2°C 100% Calm Calm -- 30.00 in1015.9 mb 0.00 in0.0 mm 0.00 in0.0 mm 0.12 in3.0 mm
08:21 AM 70.3°F21.3°C 70.3°F21.3°C 100% Calm Calm -- 30.00 in1015.9 mb 0.00 in0.0 mm 0.00 in0.0 mm 0.12 in3.0 mm
08:26 AM 70.7°F21.5°C 70.7°F21.5°C 100% Calm Calm -- 30.00 in1015.9 mb 0.00 in0.0 mm 0.00 in0.0 mm 0.12 in3.0 mm
08:31 AM 70.7°F21.5°C 70.7°F21.5°C 100% Calm Calm -- 29.97 in1014.9 mb 0.00 in0.0 mm 0.00 in0.0 mm 0.12 in3.0 mm
08:36 AM 70.9°F21.6°C 70.9°F21.6°C 100% Calm Calm -- 29.97 in1014.9 mb 0.00 in0.0 mm 0.00 in0.0 mm 0.12 in3.0 mm
08:41 AM 71.2°F21.8°C 71.2°F21.8°C 100% Calm Calm -- 29.97 in1014.9 mb 0.00 in0.0 mm 0.00 in0.0 mm 0.12 in3.0 mm
08:46 AM 71.4°F21.9°C 71.4°F21.9°C 100% Calm Calm -- 30.00 in1015.9 mb 0.00 in0.0 mm 0.00 in0.0 mm 0.12 in3.0 mm
08:51 AM 71.4°F21.9°C 71.4°F21.9°C 100% Calm Calm -- 30.00 in1015.9 mb 0.00 in0.0 mm 0.00 in0.0 mm 0.12 in3.0 mm
08:56 AM 71.4°F21.9°C 71.4°F21.9°C 100% Calm Calm -- 30.00 in1015.9 mb 0.00 in0.0 mm 0.00 in0.0 mm 0.12 in3.0 mm
09:03 AM 71.6°F22.0°C 71.6°F22.0°C 100% Calm Calm -- 30.00 in1015.9 mb 0.00 in0.0 mm 0.00 in0.0 mm 0.12 in3.0 mm
09:08 AM 71.8°F22.1°C 71.8°F22.1°C 100% Calm Calm -- 30.00 in1015.9 mb 0.00 in0.0 mm 0.00 in0.0 mm 0.12 in3.0 mm
09:13 AM 72.1°F22.3°C 72.1°F22.3°C 100% Calm Calm -- 30.00 in1015.9 mb 0.00 in0.0 mm 0.00 in0.0 mm 0.12 in3.0 mm
09:18 AM 72.7°F22.6°C 72.7°F22.6°C 100% Calm Calm -- 30.03 in1016.9 mb 0.00 in0.0 mm 0.00 in0.0 mm 0.12 in3.0 mm
09:24 AM 73.9°F23.3°C 73.9°F23.3°C 100% Calm Calm -- 30.03 in1016.9 mb 0.00 in0.0 mm 0.00 in0.0 mm 0.12 in3.0 mm
09:29 AM 74.8°F23.8°C 74.8°F23.8°C 100% 4.0 mph SSW6.4 kmh SSW 4.0 mph6.4 kmh 30.03 in1016.9 mb 0.00 in0.0 mm 0.00 in0.0 mm 0.12 in3.0 mm
09:34 AM 75.2°F24.0°C 75.2°F24.0°C 100% Calm Calm 4.0 mph6.4 kmh 30.00 in1015.9 mb 0.00 in0.0 mm 0.00 in0.0 mm 0.12 in3.0 mm
09:40 AM 75.2°F24.0°C 75.2°F24.0°C 100% 3.3 mph NE5.3 kmh NE 4.4 mph7.1 kmh 30.00 in1015.9 mb 0.00 in0.0 mm 0.00 in0.0 mm 0.12 in3.0 mm
09:44 AM 75.6°F24.2°C 75.6°F24.2°C 100% Calm Calm 4.4 mph7.1 kmh 30.00 in1015.9 mb 0.00 in0.0 mm 0.00 in0.0 mm 0.12 in3.0 mm
09:49 AM 75.9°F24.4°C 75.6°F24.2°C 99% 2.2 mph ENE3.5 kmh ENE 4.4 mph7.1 kmh 30.03 in1016.9 mb 0.00 in0.0 mm 0.00 in0.0 mm 0.12 in3.0 mm
09:55 AM 76.1°F24.5°C 75.8°F24.3°C 99% Calm Calm 2.2 mph3.5 kmh 30.03 in1016.9 mb 0.00 in0.0 mm 0.00 in0.0 mm 0.12 in3.0 mm
10:01 AM 76.5°F24.7°C 75.8°F24.3°C 98% Calm Calm -- 30.03 in1016.9 mb 0.00 in0.0 mm 0.00 in0.0 mm 0.12 in3.0 mm
10:07 AM 76.8°F24.9°C 76.1°F24.5°C 98% Calm Calm 2.2 mph3.5 kmh 30.03 in1016.9 mb 0.00 in0.0 mm 0.00 in0.0 mm 0.12 in3.0 mm
10:12 AM 77.2°F25.1°C 75.5°F24.2°C 95% Calm Calm 2.2 mph3.5 kmh 30.03 in1016.9 mb 0.00 in0.0 mm 0.00 in0.0 mm 0.12 in3.0 mm
10:19 AM 77.7°F25.4°C 76.3°F24.6°C 96% 1.8 mph E2.9 kmh E 4.0 mph6.4 kmh 30.03 in1016.9 mb 0.00 in0.0 mm 0.00 in0.0 mm 0.12 in3.0 mm
10:24 AM 78.3°F25.7°C 76.9°F24.9°C 96% 4.5 mph NNE7.2 kmh NNE 5.4 mph8.7 kmh 30.03 in1016.9 mb 0.00 in0.0 mm 0.00 in0.0 mm 0.12 in3.0 mm
10:30 AM 78.4°F25.8°C 76.3°F24.6°C 94% 2.2 mph ESE3.5 kmh ESE 5.4 mph8.7 kmh 30.03 in1016.9 mb 0.00 in0.0 mm 0.00 in0.0 mm 0.12 in3.0 mm
10:35 AM 79.2°F26.2°C 77.1°F25.1°C 94% Calm Calm 4.0 mph6.4 kmh 30.03 in1016.9 mb 0.00 in0.0 mm 0.00 in0.0 mm 0.12 in3.0 mm
10:40 AM 79.3°F26.3°C 76.9°F24.9°C 92% Calm Calm 5.0 mph8.0 kmh 30.03 in1016.9 mb 0.00 in0.0 mm 0.00 in0.0 mm 0.12 in3.0 mm
10:45 AM 80.1°F26.7°C 77.7°F25.4°C 92% Calm Calm 5.0 mph8.0 kmh 30.03 in1016.9 mb 0.00 in0.0 mm 0.00 in0.0 mm 0.12 in3.0 mm
10:50 AM 80.4°F26.9°C 76.5°F24.7°C 88% 2.6 mph NW4.2 kmh NW 2.6 mph4.2 kmh 30.03 in1016.9 mb 0.00 in0.0 mm 0.00 in0.0 mm 0.12 in3.0 mm
10:55 AM 80.8°F27.1°C 76.6°F24.8°C 87% 1.8 mph NNW2.9 kmh NNW 3.2 mph5.1 kmh 30.03 in1016.9 mb 0.00 in0.0 mm 0.00 in0.0 mm 0.12 in3.0 mm
11:00 AM 81.3°F27.4°C 76.3°F24.6°C 85% 2.8 mph WNW4.5 kmh WNW 5.0 mph8.0 kmh 30.03 in1016.9 mb 0.00 in0.0 mm 0.00 in0.0 mm 0.12 in3.0 mm
11:06 AM 81.9°F27.7°C 77.3°F25.2°C 86% 2.2 mph NNE3.5 kmh NNE 5.4 mph8.7 kmh 30.03 in1016.9 mb 0.00 in0.0 mm 0.00 in0.0 mm 0.12 in3.0 mm
11:11 AM 82.8°F28.2°C 77.8°F25.4°C 85% 1.9 mph NE3.1 kmh NE 5.4 mph8.7 kmh 30.03 in1016.9 mb 0.00 in0.0 mm 0.00 in0.0 mm 0.12 in3.0 mm
11:16 AM 83.8°F28.8°C 78.4°F25.8°C 84% Calm Calm 4.4 mph7.1 kmh 30.03 in1016.9 mb 0.00 in0.0 mm 0.00 in0.0 mm 0.12 in3.0 mm
11:21 AM 83.5°F28.6°C 76.9°F24.9°C 80% 2.4 mph NE3.9 kmh NE 2.6 mph4.2 kmh 30.03 in1016.9 mb 0.00 in0.0 mm 0.00 in0.0 mm 0.12 in3.0 mm
11:26 AM 83.7°F28.7°C 77.1°F25.1°C 80% Calm Calm 2.6 mph4.2 kmh 30.03 in1016.9 mb 0.00 in0.0 mm 0.00 in0.0 mm 0.12 in3.0 mm
11:31 AM 84.0°F28.9°C 77.4°F25.2°C 80% Calm Calm 2.6 mph4.2 kmh 30.06 in1017.9 mb 0.00 in0.0 mm 0.00 in0.0 mm 0.12 in3.0 mm
11:36 AM 84.7°F29.3°C 76.9°F24.9°C 77% 1.8 mph NNW2.9 kmh NNW 4.0 mph6.4 kmh 30.06 in1017.9 mb 0.00 in0.0 mm 0.00 in0.0 mm 0.12 in3.0 mm
11:42 AM 87.1°F30.6°C 78.3°F25.7°C 75% 2.6 mph NNE4.2 kmh NNE 4.0 mph6.4 kmh 30.06 in1017.9 mb 0.00 in0.0 mm 0.00 in0.0 mm 0.12 in3.0 mm
11:47 AM 87.3°F30.7°C 77.2°F25.1°C 72% 2.0 mph NNW3.2 kmh NNW 4.0 mph6.4 kmh 30.06 in1017.9 mb 0.00 in0.0 mm 0.00 in0.0 mm 0.12 in3.0 mm
11:52 AM 88.9°F31.6°C 77.3°F25.2°C 68% 2.5 mph NNE4.0 kmh NNE 3.2 mph5.1 kmh 30.06 in1017.9 mb 0.00 in0.0 mm 0.00 in0.0 mm 0.12 in3.0 mm
11:57 AM 89.8°F32.1°C 77.2°F25.1°C 66% 2.5 mph SW4.0 kmh SW 4.0 mph6.4 kmh 30.06 in1017.9 mb 0.00 in0.0 mm 0.00 in0.0 mm 0.12 in3.0 mm
12:02 PM 90.0°F32.2°C 75.9°F24.4°C 63% 2.4 mph WSW3.9 kmh WSW 4.0 mph6.4 kmh 30.06 in1017.9 mb 0.00 in0.0 mm 0.00 in0.0 mm 0.12 in3.0 mm
12:07 PM 91.6°F33.1°C 77.4°F25.2°C 63% 2.8 mph N4.5 kmh N 5.0 mph8.0 kmh 30.06 in1017.9 mb 0.00 in0.0 mm 0.00 in0.0 mm 0.12 in3.0 mm
12:12 PM 92.3°F33.5°C 77.0°F25.0°C 61% 2.7 mph NNE4.3 kmh NNE 5.0 mph8.0 kmh 30.06 in1017.9 mb 0.00 in0.0 mm 0.00 in0.0 mm 0.12 in3.0 mm
12:17 PM 91.6°F33.1°C 75.2°F24.0°C 58% 3.2 mph W5.1 kmh W 5.0 mph8.0 kmh 30.06 in1017.9 mb 0.00 in0.0 mm 0.00 in0.0 mm 0.12 in3.0 mm
12:22 PM 90.7°F32.6°C 74.9°F23.8°C 59% Calm Calm 5.0 mph8.0 kmh 30.06 in1017.9 mb 0.00 in0.0 mm 0.00 in0.0 mm 0.12 in3.0 mm
12:27 PM 91.9°F33.3°C 74.9°F23.8°C 57% 2.2 mph SSE3.5 kmh SSE 5.0 mph8.0 kmh 30.06 in1017.9 mb 0.00 in0.0 mm 0.00 in0.0 mm 0.12 in3.0 mm
12:33 PM 91.0°F32.8°C 74.0°F23.3°C 57% 3.6 mph WNW5.8 kmh WNW 5.0 mph8.0 kmh 30.03 in1016.9 mb 0.00 in0.0 mm 0.00 in0.0 mm 0.12 in3.0 mm
12:38 PM 90.1°F32.3°C 72.0°F22.2°C 55% 3.2 mph E5.1 kmh E 5.0 mph8.0 kmh 30.03 in1016.9 mb 0.00 in0.0 mm 0.00 in0.0 mm 0.12 in3.0 mm
12:43 PM 90.1°F32.3°C 75.4°F24.1°C 62% Calm Calm 5.0 mph8.0 kmh 30.03 in1016.9 mb 0.00 in0.0 mm 0.00 in0.0 mm 0.12 in3.0 mm
12:48 PM 91.2°F32.9°C 75.4°F24.1°C 59% 1.8 mph NE2.9 kmh NE 1.8 mph2.9 kmh 30.03 in1016.9 mb 0.00 in0.0 mm 0.00 in0.0 mm 0.12 in3.0 mm
12:54 PM 91.4°F33.0°C 75.6°F24.2°C 59% Calm Calm 6.2 mph10.0 kmh 30.03 in1016.9 mb 0.00 in0.0 mm 0.00 in0.0 mm 0.12 in3.0 mm
12:59 PM 91.4°F33.0°C 75.0°F23.9°C 58% 4.3 mph NE6.9 kmh NE 6.2 mph10.0 kmh 30.03 in1016.9 mb 0.00 in0.0 mm 0.00 in0.0 mm 0.12 in3.0 mm
01:05 PM 92.1°F33.4°C 76.2°F24.6°C 59% Calm Calm 5.4 mph8.7 kmh 30.03 in1016.9 mb 0.00 in0.0 mm 0.00 in0.0 mm 0.12 in3.0 mm
01:10 PM 93.4°F34.1°C 76.9°F24.9°C 58% 2.6 mph E4.2 kmh E 3.2 mph5.1 kmh 30.03 in1016.9 mb 0.00 in0.0 mm 0.00 in0.0 mm 0.12 in3.0 mm
01:15 PM 93.4°F34.1°C 75.1°F23.9°C 55% 1.8 mph S2.9 kmh S 4.0 mph6.4 kmh 30.03 in1016.9 mb 0.00 in0.0 mm 0.00 in0.0 mm 0.12 in3.0 mm
01:20 PM 94.1°F34.5°C 75.7°F24.3°C 55% 2.2 mph ENE3.5 kmh ENE 4.0 mph6.4 kmh 30.03 in1016.9 mb 0.00 in0.0 mm 0.00 in0.0 mm 0.12 in3.0 mm
01:27 PM 94.1°F34.5°C 75.7°F24.3°C 55% Calm Calm 4.4 mph7.1 kmh 30.03 in1016.9 mb 0.00 in0.0 mm 0.00 in0.0 mm 0.12 in3.0 mm
01:32 PM 93.6°F34.2°C 74.7°F23.7°C 54% Calm Calm 4.0 mph6.4 kmh 30.03 in1016.9 mb 0.00 in0.0 mm 0.00 in0.0 mm 0.12 in3.0 mm
01:37 PM 92.5°F33.6°C 74.3°F23.5°C 55% Calm Calm -- 30.03 in1016.9 mb 0.00 in0.0 mm 0.00 in0.0 mm 0.12 in3.0 mm
01:42 PM 92.1°F33.4°C 73.9°F23.3°C 55% 3.9 mph E6.3 kmh E 6.2 mph10.0 kmh 30.03 in1016.9 mb 0.00 in0.0 mm 0.00 in0.0 mm 0.12 in3.0 mm
01:47 PM 92.1°F33.4°C 73.3°F22.9°C 54% 3.1 mph SE5.0 kmh SE 6.2 mph10.0 kmh 30.03 in1016.9 mb 0.00 in0.0 mm 0.00 in0.0 mm 0.12 in3.0 mm
01:52 PM 92.1°F33.4°C 74.5°F23.6°C 56% 2.6 mph ENE4.2 kmh ENE 5.0 mph8.0 kmh 30.03 in1016.9 mb 0.00 in0.0 mm 0.00 in0.0 mm 0.12 in3.0 mm
01:57 PM 93.0°F33.9°C 74.7°F23.7°C 55% 4.4 mph NE7.1 kmh NE 4.4 mph7.1 kmh 30.03 in1016.9 mb 0.00 in0.0 mm 0.00 in0.0 mm 0.12 in3.0 mm
02:02 PM 91.8°F33.2°C 73.0°F22.8°C 54% 3.4 mph NE5.5 kmh NE 6.8 mph10.9 kmh 30.03 in1016.9 mb 0.00 in0.0 mm 0.00 in0.0 mm 0.12 in3.0 mm
02:07 PM 93.4°F34.1°C 75.1°F23.9°C 55% 2.3 mph NE3.7 kmh NE 6.8 mph10.9 kmh 30.03 in1016.9 mb 0.00 in0.0 mm 0.00 in0.0 mm 0.12 in3.0 mm
02:12 PM 94.1°F34.5°C 75.1°F23.9°C 54% 4.6 mph E7.4 kmh E 5.4 mph8.7 kmh 30.03 in1016.9 mb 0.00 in0.0 mm 0.00 in0.0 mm 0.12 in3.0 mm
02:18 PM 93.9°F34.4°C 73.7°F23.2°C 52% 2.3 mph E3.7 kmh E 5.4 mph8.7 kmh 30.03 in1016.9 mb 0.00 in0.0 mm 0.00 in0.0 mm 0.12 in3.0 mm
02:23 PM 94.1°F34.5°C 74.5°F23.6°C 53% 2.3 mph SE3.7 kmh SE 5.4 mph8.7 kmh 30.03 in1016.9 mb 0.00 in0.0 mm 0.00 in0.0 mm 0.12 in3.0 mm
02:28 PM 93.7°F34.3°C 74.1°F23.4°C 53% 5.2 mph NE8.4 kmh NE 8.0 mph12.9 kmh 30.03 in1016.9 mb 0.00 in0.0 mm 0.00 in0.0 mm 0.12 in3.0 mm
02:33 PM 92.8°F33.8°C 73.3°F22.9°C 53% 3.1 mph NE5.0 kmh NE 8.0 mph12.9 kmh 30.03 in1016.9 mb 0.00 in0.0 mm 0.00 in0.0 mm 0.12 in3.0 mm
02:41 PM 94.8°F34.9°C 75.1°F23.9°C 53% 2.8 mph NE4.5 kmh NE 6.2 mph10.0 kmh 30.03 in1016.9 mb 0.00 in0.0 mm 0.00 in0.0 mm 0.12 in3.0 mm
02:46 PM 94.8°F34.9°C 73.8°F23.2°C 51% 3.4 mph NE5.5 kmh NE 5.8 mph9.3 kmh 30.03 in1016.9 mb 0.00 in0.0 mm 0.00 in0.0 mm 0.12 in3.0 mm
02:53 PM 92.3°F33.5°C 72.2°F22.3°C 52% 3.4 mph NE5.5 kmh NE 6.2 mph10.0 kmh 30.03 in1016.9 mb 0.00 in0.0 mm 0.00 in0.0 mm 0.12 in3.0 mm
02:58 PM 93.2°F34.0°C 73.0°F22.8°C 52% 4.8 mph ESE7.7 kmh ESE 6.2 mph10.0 kmh 30.03 in1016.9 mb 0.00 in0.0 mm 0.00 in0.0 mm 0.12 in3.0 mm
03:03 PM 94.8°F34.9°C 73.8°F23.2°C 51% 3.1 mph ESE5.0 kmh ESE 5.4 mph8.7 kmh 30.03 in1016.9 mb 0.00 in0.0 mm 0.00 in0.0 mm 0.12 in3.0 mm
03:08 PM 94.1°F34.5°C 73.2°F22.9°C 51% 4.4 mph E7.1 kmh E 6.2 mph10.0 kmh 30.03 in1016.9 mb 0.00 in0.0 mm 0.00 in0.0 mm 0.12 in3.0 mm
03:13 PM 93.7°F34.3°C 73.5°F23.1°C 52% Calm Calm 6.2 mph10.0 kmh 30.03 in1016.9 mb 0.00 in0.0 mm 0.00 in0.0 mm 0.12 in3.0 mm
03:18 PM 93.6°F34.2°C 73.4°F23.0°C 52% 3.5 mph NE5.6 kmh NE 6.2 mph10.0 kmh 30.03 in1016.9 mb 0.00 in0.0 mm 0.00 in0.0 mm 0.12 in3.0 mm
03:23 PM 93.7°F34.3°C 73.5°F23.1°C 52% 2.7 mph NE4.3 kmh NE 4.4 mph7.1 kmh 30.03 in1016.9 mb 0.00 in0.0 mm 0.00 in0.0 mm 0.12 in3.0 mm
03:28 PM 92.3°F33.5°C 72.2°F22.3°C 52% 2.1 mph ENE3.4 kmh ENE 4.4 mph7.1 kmh 30.03 in1016.9 mb 0.00 in0.0 mm 0.00 in0.0 mm 0.12 in3.0 mm
03:33 PM 91.9°F33.3°C 72.5°F22.5°C 53% 3.2 mph NE5.1 kmh NE 4.0 mph6.4 kmh 30.03 in1016.9 mb 0.00 in0.0 mm 0.00 in0.0 mm 0.12 in3.0 mm
03:38 PM 91.6°F33.1°C 74.0°F23.3°C 56% 1.9 mph NE3.1 kmh NE 4.0 mph6.4 kmh 30.03 in1016.9 mb 0.00 in0.0 mm 0.00 in0.0 mm 0.12 in3.0 mm
03:45 PM 91.6°F33.1°C 73.4°F23.0°C 55% Calm Calm 2.2 mph3.5 kmh 30.03 in1016.9 mb 0.00 in0.0 mm 0.00 in0.0 mm 0.12 in3.0 mm
03:50 PM 91.9°F33.3°C 74.3°F23.5°C 56% 3.8 mph SW6.1 kmh SW 4.4 mph7.1 kmh 30.03 in1016.9 mb 0.00 in0.0 mm 0.00 in0.0 mm 0.12 in3.0 mm
03:56 PM 92.5°F33.6°C 74.3°F23.5°C 55% 2.2 mph ESE3.5 kmh ESE 4.4 mph7.1 kmh 30.03 in1016.9 mb 0.00 in0.0 mm 0.00 in0.0 mm 0.12 in3.0 mm
04:01 PM 92.5°F33.6°C 74.3°F23.5°C 55% Calm Calm 4.0 mph6.4 kmh 30.03 in1016.9 mb 0.00 in0.0 mm 0.00 in0.0 mm 0.12 in3.0 mm
04:08 PM 94.3°F34.6°C 74.7°F23.7°C 53% Calm Calm 3.2 mph5.1 kmh 30.03 in1016.9 mb 0.00 in0.0 mm 0.00 in0.0 mm 0.12 in3.0 mm
04:13 PM 93.7°F34.3°C 73.5°F23.1°C 52% 3.3 mph SW5.3 kmh SW 4.4 mph7.1 kmh 30.03 in1016.9 mb 0.00 in0.0 mm 0.00 in0.0 mm 0.12 in3.0 mm
04:18 PM 93.6°F34.2°C 72.7°F22.6°C 51% Calm Calm 4.4 mph7.1 kmh 30.00 in1015.9 mb 0.00 in0.0 mm 0.00 in0.0 mm 0.12 in3.0 mm
04:23 PM 93.6°F34.2°C 73.4°F23.0°C 52% 1.8 mph SSE2.9 kmh SSE 2.2 mph3.5 kmh 30.00 in1015.9 mb 0.00 in0.0 mm 0.00 in0.0 mm 0.12 in3.0 mm
04:29 PM 93.9°F34.4°C 73.0°F22.8°C 51% 2.3 mph NE3.7 kmh NE 2.6 mph4.2 kmh 30.00 in1015.9 mb 0.00 in0.0 mm 0.00 in0.0 mm 0.12 in3.0 mm
04:34 PM 93.9°F34.4°C 73.0°F22.8°C 51% 2.0 mph NNE3.2 kmh NNE 2.6 mph4.2 kmh 30.00 in1015.9 mb 0.00 in0.0 mm 0.00 in0.0 mm 0.12 in3.0 mm
04:40 PM 94.5°F34.7°C 73.6°F23.1°C 51% 1.8 mph SSE2.9 kmh SSE 4.0 mph6.4 kmh 30.00 in1015.9 mb 0.00 in0.0 mm 0.00 in0.0 mm 0.12 in3.0 mm
04:45 PM 93.4°F34.1°C 71.9°F22.2°C 50% 3.9 mph NW6.3 kmh NW 4.4 mph7.1 kmh 30.00 in1015.9 mb 0.00 in0.0 mm 0.00 in0.0 mm 0.12 in3.0 mm
04:50 PM 92.8°F33.8°C 72.0°F22.2°C 51% Calm Calm 4.4 mph7.1 kmh 30.00 in1015.9 mb 0.00 in0.0 mm 0.00 in0.0 mm 0.12 in3.0 mm
04:55 PM 91.4°F33.0°C 71.3°F21.8°C 52% Calm Calm 4.0 mph6.4 kmh 30.00 in1015.9 mb 0.00 in0.0 mm 0.00 in0.0 mm 0.12 in3.0 mm
05:00 PM 90.9°F32.7°C 72.8°F22.7°C 55% Calm Calm -- 29.97 in1014.9 mb 0.00 in0.0 mm 0.00 in0.0 mm 0.12 in3.0 mm
05:05 PM 90.1°F32.3°C 73.2°F22.9°C 57% Calm Calm -- 29.97 in1014.9 mb 0.00 in0.0 mm 0.00 in0.0 mm 0.12 in3.0 mm
05:11 PM 90.0°F32.2°C 73.1°F22.8°C 57% 4.1 mph NE6.6 kmh NE 5.4 mph8.7 kmh 29.97 in1014.9 mb 0.00 in0.0 mm 0.00 in0.0 mm 0.12 in3.0 mm
05:17 PM 89.2°F31.8°C 72.9°F22.7°C 58% 6.3 mph NNE10.1 kmh NNE 7.6 mph12.2 kmh 30.03 in1016.9 mb 0.00 in0.0 mm 0.00 in0.0 mm 0.12 in3.0 mm
05:23 PM 88.7°F31.5°C 73.0°F22.8°C 59% 2.9 mph NNE4.7 kmh NNE 7.6 mph12.2 kmh 30.03 in1016.9 mb 0.00 in0.0 mm 0.00 in0.0 mm 0.12 in3.0 mm
05:28 PM 89.1°F31.7°C 73.9°F23.3°C 61% Calm Calm 5.8 mph9.3 kmh 30.03 in1016.9 mb 0.00 in0.0 mm 0.00 in0.0 mm 0.12 in3.0 mm
05:33 PM 88.9°F31.6°C 74.3°F23.5°C 62% Calm Calm 4.0 mph6.4 kmh 30.00 in1015.9 mb 0.00 in0.0 mm 0.00 in0.0 mm 0.12 in3.0 mm
05:38 PM 88.5°F31.4°C 73.4°F23.0°C 61% Calm Calm -- 30.00 in1015.9 mb 0.00 in0.0 mm 0.00 in0.0 mm 0.12 in3.0 mm
05:44 PM 88.0°F31.1°C 73.4°F23.0°C 62% Calm Calm -- 30.00 in1015.9 mb 0.00 in0.0 mm 0.00 in0.0 mm 0.12 in3.0 mm
05:49 PM 88.2°F31.2°C 74.2°F23.4°C 63% Calm Calm -- 30.00 in1015.9 mb 0.00 in0.0 mm 0.00 in0.0 mm 0.12 in3.0 mm
05:54 PM 88.3°F31.3°C 74.3°F23.5°C 63% Calm Calm -- 30.00 in1015.9 mb 0.00 in0.0 mm 0.00 in0.0 mm 0.12 in3.0 mm
05:59 PM 88.3°F31.3°C 74.8°F23.8°C 64% Calm Calm -- 30.00 in1015.9 mb 0.00 in0.0 mm 0.00 in0.0 mm 0.12 in3.0 mm
06:04 PM 88.0°F31.1°C 74.0°F23.3°C 63% 3.5 mph NE5.6 kmh NE 4.4 mph7.1 kmh 29.97 in1014.9 mb 0.00 in0.0 mm 0.00 in0.0 mm 0.12 in3.0 mm
06:09 PM 88.3°F31.3°C 72.6°F22.6°C 59% 4.0 mph N6.4 kmh N 5.4 mph8.7 kmh 29.97 in1014.9 mb 0.00 in0.0 mm 0.00 in0.0 mm 0.12 in3.0 mm
06:14 PM 88.5°F31.4°C 71.1°F21.7°C 56% 4.2 mph S6.8 kmh S 5.4 mph8.7 kmh 29.97 in1014.9 mb 0.00 in0.0 mm 0.00 in0.0 mm 0.12 in3.0 mm
06:19 PM 88.9°F31.6°C 70.3°F21.3°C 54% 2.9 mph NNE4.7 kmh NNE 5.8 mph9.3 kmh 29.97 in1014.9 mb 0.00 in0.0 mm 0.00 in0.0 mm 0.12 in3.0 mm
06:24 PM 89.2°F31.8°C 69.9°F21.1°C 53% 2.2 mph NNE3.5 kmh NNE 5.8 mph9.3 kmh 29.97 in1014.9 mb 0.00 in0.0 mm 0.00 in0.0 mm 0.12 in3.0 mm
06:29 PM 89.2°F31.8°C 69.3°F20.7°C 52% Calm Calm 4.0 mph6.4 kmh 29.97 in1014.9 mb 0.00 in0.0 mm 0.00 in0.0 mm 0.12 in3.0 mm
06:34 PM 89.2°F31.8°C 68.7°F20.4°C 51% 3.0 mph N4.8 kmh N 4.4 mph7.1 kmh 29.97 in1014.9 mb 0.00 in0.0 mm 0.00 in0.0 mm 0.12 in3.0 mm
06:39 PM 89.4°F31.9°C 68.8°F20.4°C 51% 2.4 mph NNE3.9 kmh NNE 5.0 mph8.0 kmh 29.97 in1014.9 mb 0.00 in0.0 mm 0.00 in0.0 mm 0.12 in3.0 mm
06:44 PM 89.4°F31.9°C 68.2°F20.1°C 50% Calm Calm 5.0 mph8.0 kmh 29.97 in1014.9 mb 0.00 in0.0 mm 0.00 in0.0 mm 0.12 in3.0 mm
06:49 PM 89.4°F31.9°C 68.2°F20.1°C 50% 2.2 mph NE3.5 kmh NE 2.6 mph4.2 kmh 29.97 in1014.9 mb 0.00 in0.0 mm 0.00 in0.0 mm 0.12 in3.0 mm
06:54 PM 89.4°F31.9°C 67.5°F19.7°C 48% 2.6 mph NNE4.2 kmh NNE 5.0 mph8.0 kmh 29.97 in1014.9 mb 0.00 in0.0 mm 0.00 in0.0 mm 0.12 in3.0 mm
06:59 PM 89.2°F31.8°C 67.3°F19.6°C 48% Calm Calm 5.0 mph8.0 kmh 29.97 in1014.9 mb 0.00 in0.0 mm 0.00 in0.0 mm 0.12 in3.0 mm
07:04 PM 88.9°F31.6°C 67.7°F19.8°C 50% Calm Calm -- 29.97 in1014.9 mb 0.00 in0.0 mm 0.00 in0.0 mm 0.12 in3.0 mm
07:09 PM 88.7°F31.5°C 68.2°F20.1°C 51% Calm Calm -- 29.97 in1014.9 mb 0.00 in0.0 mm 0.00 in0.0 mm 0.12 in3.0 mm
07:14 PM 88.2°F31.2°C 67.7°F19.8°C 51% Calm Calm -- 29.97 in1014.9 mb 0.00 in0.0 mm 0.00 in0.0 mm 0.12 in3.0 mm
07:19 PM 87.6°F30.9°C 67.8°F19.9°C 52% Calm Calm -- 30.00 in1015.9 mb 0.00 in0.0 mm 0.00 in0.0 mm 0.12 in3.0 mm
07:24 PM 87.3°F30.7°C 68.8°F20.4°C 54% Calm Calm -- 30.00 in1015.9 mb 0.00 in0.0 mm 0.00 in0.0 mm 0.12 in3.0 mm
07:29 PM 87.1°F30.6°C 68.0°F20.0°C 53% Calm Calm -- 30.00 in1015.9 mb 0.00 in0.0 mm 0.00 in0.0 mm 0.12 in3.0 mm
07:35 PM 86.9°F30.5°C 67.2°F19.6°C 52% Calm Calm -- 30.00 in1015.9 mb 0.00 in0.0 mm 0.00 in0.0 mm 0.12 in3.0 mm
07:39 PM 86.7°F30.4°C 67.6°F19.8°C 53% Calm Calm -- 30.00 in1015.9 mb 0.00 in0.0 mm 0.00 in0.0 mm 0.12 in3.0 mm
07:46 PM 86.0°F30.0°C 67.6°F19.8°C 54% Calm Calm -- 30.00 in1015.9 mb 0.00 in0.0 mm 0.00 in0.0 mm 0.12 in3.0 mm
07:51 PM 85.6°F29.8°C 68.4°F20.2°C 56% Calm Calm -- 30.00 in1015.9 mb 0.00 in0.0 mm 0.00 in0.0 mm 0.12 in3.0 mm
07:58 PM 84.9°F29.4°C 67.7°F19.8°C 56% Calm Calm -- 30.00 in1015.9 mb 0.00 in0.0 mm 0.00 in0.0 mm 0.12 in3.0 mm
08:03 PM 84.4°F29.1°C 68.4°F20.2°C 58% Calm Calm -- 30.00 in1015.9 mb 0.00 in0.0 mm 0.00 in0.0 mm 0.12 in3.0 mm
08:08 PM 83.8°F28.8°C 68.4°F20.2°C 59% Calm Calm -- 30.00 in1015.9 mb 0.00 in0.0 mm 0.00 in0.0 mm 0.12 in3.0 mm
08:13 PM 83.5°F28.6°C 69.2°F20.7°C 62% Calm Calm -- 30.00 in1015.9 mb 0.00 in0.0 mm 0.00 in0.0 mm 0.12 in3.0 mm
08:19 PM 82.8°F28.2°C 70.0°F21.1°C 65% Calm Calm -- 30.03 in1016.9 mb 0.00 in0.0 mm 0.00 in0.0 mm 0.12 in3.0 mm
08:24 PM 82.2°F27.9°C 70.4°F21.3°C 67% Calm Calm -- 30.03 in1016.9 mb 0.00 in0.0 mm 0.00 in0.0 mm 0.12 in3.0 mm
08:31 PM 81.5°F27.5°C 71.6°F22.0°C 72% Calm Calm -- 30.00 in1015.9 mb 0.00 in0.0 mm 0.00 in0.0 mm 0.12 in3.0 mm
08:36 PM 81.1°F27.3°C 71.7°F22.1°C 73% Calm Calm -- 30.00 in1015.9 mb 0.00 in0.0 mm 0.00 in0.0 mm 0.12 in3.0 mm
08:41 PM 80.6°F27.0°C 70.7°F21.5°C 72% Calm Calm -- 30.00 in1015.9 mb 0.00 in0.0 mm 0.00 in0.0 mm 0.12 in3.0 mm
08:46 PM 80.1°F26.7°C 70.7°F21.5°C 73% Calm Calm -- 30.00 in1015.9 mb 0.00 in0.0 mm 0.00 in0.0 mm 0.12 in3.0 mm
08:51 PM 79.7°F26.5°C 70.3°F21.3°C 73% Calm Calm -- 30.00 in1015.9 mb 0.00 in0.0 mm 0.00 in0.0 mm 0.12 in3.0 mm
08:56 PM 79.3°F26.3°C 70.8°F21.6°C 75% Calm Calm -- 30.00 in1015.9 mb 0.00 in0.0 mm 0.00 in0.0 mm 0.12 in3.0 mm
09:01 PM 79.0°F26.1°C 70.5°F21.4°C 75% Calm Calm -- 30.00 in1015.9 mb 0.00 in0.0 mm 0.00 in0.0 mm 0.12 in3.0 mm
09:06 PM 78.8°F26.0°C 70.3°F21.3°C 75% Calm Calm -- 30.00 in1015.9 mb 0.00 in0.0 mm 0.00 in0.0 mm 0.12 in3.0 mm
09:11 PM 78.6°F25.9°C 70.9°F21.6°C 77% Calm Calm -- 30.00 in1015.9 mb 0.00 in0.0 mm 0.00 in0.0 mm 0.12 in3.0 mm
09:16 PM 78.4°F25.8°C 70.7°F21.5°C 77% Calm Calm -- 30.00 in1015.9 mb 0.00 in0.0 mm 0.00 in0.0 mm 0.12 in3.0 mm
09:24 PM 78.4°F25.8°C 71.1°F21.7°C 78% Calm Calm 2.6 mph4.2 kmh 30.00 in1015.9 mb 0.00 in0.0 mm 0.00 in0.0 mm 0.12 in3.0 mm
09:29 PM 78.3°F25.7°C 71.0°F21.7°C 78% Calm Calm 2.6 mph4.2 kmh 30.00 in1015.9 mb 0.00 in0.0 mm 0.00 in0.0 mm 0.12 in3.0 mm
09:34 PM 78.1°F25.6°C 71.2°F21.8°C 79% Calm Calm -- 30.00 in1015.9 mb 0.00 in0.0 mm 0.00 in0.0 mm 0.12 in3.0 mm
09:39 PM 78.1°F25.6°C 72.0°F22.2°C 81% Calm Calm -- 30.00 in1015.9 mb 0.00 in0.0 mm 0.00 in0.0 mm 0.12 in3.0 mm
09:45 PM 77.9°F25.5°C 72.2°F22.3°C 83% Calm Calm -- 30.00 in1015.9 mb 0.00 in0.0 mm 0.00 in0.0 mm 0.12 in3.0 mm
09:50 PM 77.9°F25.5°C 71.8°F22.1°C 81% Calm Calm -- 30.00 in1015.9 mb 0.00 in0.0 mm 0.00 in0.0 mm 0.12 in3.0 mm
09:55 PM 77.7°F25.4°C 72.0°F22.2°C 83% Calm Calm -- 30.00 in1015.9 mb 0.00 in0.0 mm 0.00 in0.0 mm 0.12 in3.0 mm
10:00 PM 77.7°F25.4°C 72.8°F22.7°C 85% Calm Calm -- 30.03 in1016.9 mb 0.00 in0.0 mm 0.00 in0.0 mm 0.12 in3.0 mm
10:05 PM 77.5°F25.3°C 72.6°F22.6°C 85% Calm Calm -- 30.03 in1016.9 mb 0.00 in0.0 mm 0.00 in0.0 mm 0.12 in3.0 mm
10:10 PM 77.4°F25.2°C 72.8°F22.7°C 86% Calm Calm -- 30.03 in1016.9 mb 0.00 in0.0 mm 0.00 in0.0 mm 0.12 in3.0 mm
10:15 PM 77.4°F25.2°C 73.2°F22.9°C 87% Calm Calm -- 30.03 in1016.9 mb 0.00 in0.0 mm 0.00 in0.0 mm 0.12 in3.0 mm
10:20 PM 77.2°F25.1°C 72.7°F22.6°C 86% Calm Calm -- 30.03 in1016.9 mb 0.00 in0.0 mm 0.00 in0.0 mm 0.12 in3.0 mm
10:26 PM 77.0°F25.0°C 72.5°F22.5°C 86% Calm Calm -- 30.03 in1016.9 mb 0.00 in0.0 mm 0.00 in0.0 mm 0.12 in3.0 mm
10:31 PM 76.8°F24.9°C 73.0°F22.8°C 88% Calm Calm -- 30.03 in1016.9 mb 0.00 in0.0 mm 0.00 in0.0 mm 0.12 in3.0 mm
10:37 PM 76.6°F24.8°C 72.8°F22.7°C 88% Calm Calm -- 30.03 in1016.9 mb 0.00 in0.0 mm 0.00 in0.0 mm 0.12 in3.0 mm
10:42 PM 76.5°F24.7°C 72.3°F22.4°C 87% Calm Calm -- 30.03 in1016.9 mb 0.00 in0.0 mm 0.00 in0.0 mm 0.12 in3.0 mm
10:47 PM 76.3°F24.6°C 72.9°F22.7°C 89% Calm Calm -- 30.06 in1017.9 mb 0.00 in0.0 mm 0.00 in0.0 mm 0.12 in3.0 mm
10:52 PM 76.1°F24.5°C 72.3°F22.4°C 88% Calm Calm -- 30.06 in1017.9 mb 0.00 in0.0 mm 0.00 in0.0 mm 0.12 in3.0 mm
10:58 PM 75.7°F24.3°C 72.6°F22.6°C 90% Calm Calm -- 30.06 in1017.9 mb 0.00 in0.0 mm 0.00 in0.0 mm 0.12 in3.0 mm
11:03 PM 75.7°F24.3°C 73.0°F22.8°C 91% Calm Calm -- 30.06 in1017.9 mb 0.00 in0.0 mm 0.00 in0.0 mm 0.12 in3.0 mm
11:08 PM 75.4°F24.1°C 72.3°F22.4°C 90% Calm Calm -- 30.06 in1017.9 mb 0.00 in0.0 mm 0.00 in0.0 mm 0.12 in3.0 mm
11:13 PM 75.4°F24.1°C 73.0°F22.8°C 92% Calm Calm -- 30.06 in1017.9 mb 0.00 in0.0 mm 0.00 in0.0 mm 0.12 in3.0 mm
11:18 PM 75.2°F24.0°C 72.8°F22.7°C 92% Calm Calm -- 30.06 in1017.9 mb 0.00 in0.0 mm 0.00 in0.0 mm 0.12 in3.0 mm
11:23 PM 75.0°F23.9°C 73.0°F22.8°C 94% Calm Calm -- 30.06 in1017.9 mb 0.00 in0.0 mm 0.00 in0.0 mm 0.12 in3.0 mm
11:28 PM 74.8°F23.8°C 72.8°F22.7°C 94% Calm Calm -- 30.06 in1017.9 mb 0.00 in0.0 mm 0.00 in0.0 mm 0.12 in3.0 mm
11:33 PM 74.7°F23.7°C 73.0°F22.8°C 95% Calm Calm -- 30.06 in1017.9 mb 0.00 in0.0 mm 0.00 in0.0 mm 0.12 in3.0 mm
11:38 PM 74.5°F23.6°C 73.2°F22.9°C 96% Calm Calm -- 30.06 in1017.9 mb 0.00 in0.0 mm 0.00 in0.0 mm 0.12 in3.0 mm
11:43 PM 74.3°F23.5°C 73.3°F22.9°C 97% Calm Calm -- 30.06 in1017.9 mb 0.00 in0.0 mm 0.00 in0.0 mm 0.12 in3.0 mm
11:48 PM 74.1°F23.4°C 72.8°F22.7°C 96% Calm Calm -- 30.03 in1016.9 mb 0.00 in0.0 mm 0.00 in0.0 mm 0.12 in3.0 mm
11:53 PM 73.9°F23.3°C 72.6°F22.6°C 96% Calm Calm -- 30.03 in1016.9 mb 0.00 in0.0 mm 0.00 in0.0 mm 0.12 in3.0 mm
11:58 PM 73.9°F23.3°C 72.9°F22.7°C 97% Calm Calm -- 30.03 in1016.9 mb 0.00 in0.0 mm 0.00 in0.0 mm 0.12 in3.0 mm